createdAt,value
2017-06-06T00:01:49.678Z,13.73
2017-06-06T00:04:18.135Z,13.90
2017-06-06T00:06:46.631Z,13.20
2017-06-06T00:09:15.091Z,12.17
2017-06-06T00:11:43.526Z,13.73
2017-06-06T00:14:12.747Z,12.07
2017-06-06T00:16:41.191Z,16.07
2017-06-06T00:19:09.708Z,20.43
2017-06-06T00:21:38.168Z,15.67
2017-06-06T00:24:07.375Z,14.03
2017-06-06T00:26:37.152Z,15.30
2017-06-06T00:29:05.683Z,13.60
2017-06-06T00:31:34.650Z,15.33
2017-06-06T00:34:03.188Z,15.73
2017-06-06T00:36:32.575Z,15.10
2017-06-06T00:39:01.028Z,16.17
2017-06-06T00:41:29.473Z,13.50
2017-06-06T00:43:57.956Z,16.27
2017-06-06T00:46:26.405Z,15.70
2017-06-06T00:48:54.841Z,16.17
2017-06-06T00:51:23.299Z,15.30
2017-06-06T00:53:51.751Z,15.10
2017-06-06T00:56:21.541Z,14.97
2017-06-06T00:58:50.743Z,15.00
2017-06-06T01:01:19.972Z,14.97
2017-06-06T01:03:49.000Z,17.03
2017-06-06T01:06:17.540Z,13.47
2017-06-06T01:08:46.031Z,14.97
2017-06-06T01:11:14.486Z,15.30
2017-06-06T01:13:43.695Z,14.37
2017-06-06T01:16:12.144Z,15.73
2017-06-06T01:18:40.615Z,15.80
2017-06-06T01:21:14.562Z,19.80
2017-06-06T01:23:42.832Z,15.27
2017-06-06T01:26:11.880Z,18.23
2017-06-06T01:28:41.949Z,15.23
2017-06-06T01:31:11.031Z,15.03
2017-06-06T01:33:44.952Z,14.63
2017-06-06T01:36:14.170Z,16.00
2017-06-06T01:38:42.695Z,19.07
2017-06-06T01:41:11.166Z,19.00
2017-06-06T01:43:39.613Z,19.23
2017-06-06T01:46:08.081Z,18.10
2017-06-06T01:48:36.620Z,18.90
2017-06-06T01:51:05.155Z,20.67
2017-06-06T01:53:34.363Z,19.37
2017-06-06T01:56:02.471Z,19.83
2017-06-06T01:58:30.907Z,15.60
2017-06-06T02:00:59.847Z,17.47
2017-06-06T02:03:28.327Z,21.60
2017-06-06T02:05:56.767Z,20.30
2017-06-06T02:08:25.991Z,21.03
2017-06-06T02:10:54.446Z,20.10
2017-06-06T02:13:23.668Z,22.30
2017-06-06T02:15:52.191Z,18.97
2017-06-06T02:18:20.687Z,18.43
2017-06-06T02:20:49.125Z,19.07
2017-06-06T02:23:17.677Z,19.13
2017-06-06T02:25:46.883Z,19.63
2017-06-06T02:28:16.092Z,22.80
2017-06-06T02:30:44.616Z,23.10
2017-06-06T02:33:13.153Z,20.20
2017-06-06T02:35:42.371Z,21.17
2017-06-06T02:38:10.836Z,23.13
2017-06-06T02:40:39.296Z,21.83
2017-06-06T02:43:07.738Z,18.63
2017-06-06T02:45:36.172Z,15.73
2017-06-06T02:48:05.387Z,17.23
2017-06-06T02:50:33.843Z,19.30
2017-06-06T02:53:02.156Z,21.27
2017-06-06T02:55:30.596Z,19.80
2017-06-06T02:57:59.025Z,18.63
2017-06-06T03:00:27.480Z,19.17
2017-06-06T03:02:55.972Z,19.10
2017-06-06T03:05:24.427Z,19.97
2017-06-06T03:07:52.855Z,19.03
2017-06-06T03:10:22.755Z,21.83
2017-06-06T03:12:51.203Z,22.90
2017-06-06T03:15:19.659Z,20.33
2017-06-06T03:17:48.096Z,20.83
2017-06-06T03:20:16.547Z,20.60
2017-06-06T03:22:44.984Z,20.03
2017-06-06T03:25:13.424Z,20.13
2017-06-06T03:27:42.639Z,17.70
2017-06-06T03:30:10.751Z,22.73
2017-06-06T03:33:17.243Z,23.17
2017-06-06T03:35:45.692Z,21.20
2017-06-06T03:38:14.152Z,21.30
2017-06-06T03:40:42.579Z,20.47
2017-06-06T03:43:11.027Z,26.37
2017-06-06T03:45:39.454Z,21.10
2017-06-06T03:48:07.890Z,20.50
2017-06-06T03:50:36.344Z,21.93
2017-06-06T03:53:05.542Z,23.80
2017-06-06T03:55:34.779Z,22.90
2017-06-06T03:58:03.235Z,21.40
2017-06-06T04:00:31.700Z,21.90
2017-06-06T04:03:00.927Z,20.70
2017-06-06T04:05:29.376Z,20.27
2017-06-06T04:07:58.583Z,20.50
2017-06-06T04:10:27.805Z,21.07
2017-06-06T04:12:56.263Z,24.53
2017-06-06T04:15:25.474Z,21.40
2017-06-06T04:17:54.724Z,19.90
2017-06-06T04:20:23.055Z,20.80
2017-06-06T04:22:52.264Z,19.90
2017-06-06T04:25:20.703Z,18.57
2017-06-06T04:27:49.160Z,17.87
2017-06-06T04:30:17.599Z,20.17
2017-06-06T04:32:47.469Z,18.67
2017-06-06T04:35:15.931Z,18.87
2017-06-06T04:37:44.395Z,19.13
2017-06-06T04:40:12.919Z,19.30
2017-06-06T04:42:41.347Z,19.67
2017-06-06T04:45:09.799Z,20.77
2017-06-06T04:47:38.240Z,20.13
2017-06-06T04:50:06.691Z,20.17
2017-06-06T04:52:35.171Z,20.03
2017-06-06T04:55:03.595Z,19.77
2017-06-06T04:57:32.072Z,18.70
2017-06-06T05:00:00.520Z,21.07
2017-06-06T05:02:29.643Z,19.87
2017-06-06T05:04:58.098Z,18.40
2017-06-06T05:07:26.678Z,18.00
2017-06-06T05:09:55.132Z,18.47
2017-06-06T05:12:23.556Z,18.53
2017-06-06T05:14:52.135Z,17.20
2017-06-06T05:17:21.479Z,17.63
2017-06-06T05:19:49.915Z,16.70
2017-06-06T05:22:18.343Z,15.13
2017-06-06T05:24:46.843Z,15.63
2017-06-06T05:27:15.285Z,15.73
2017-06-06T05:29:43.704Z,14.30
2017-06-06T05:32:12.144Z,12.63
2017-06-06T05:34:40.575Z,13.37
2017-06-06T05:37:09.032Z,12.37
2017-06-06T05:39:37.472Z,12.27
2017-06-06T05:42:05.912Z,12.17
2017-06-06T05:44:34.364Z,13.30
2017-06-06T05:47:02.810Z,13.10
2017-06-06T05:49:31.261Z,11.73
2017-06-06T05:51:59.691Z,13.03
2017-06-06T05:54:28.139Z,12.50
2017-06-06T05:56:57.368Z,11.80
2017-06-06T05:59:25.798Z,11.43
2017-06-06T06:01:54.234Z,11.97
2017-06-06T06:04:22.668Z,11.37
2017-06-06T06:06:51.115Z,10.63
2017-06-06T06:09:19.568Z,10.33
2017-06-06T06:11:48.100Z,10.30
2017-06-06T06:14:16.553Z,9.63
2017-06-06T06:16:44.976Z,9.47
2017-06-06T06:19:14.092Z,9.70
2017-06-06T06:21:43.299Z,8.30
2017-06-06T06:24:12.492Z,14.07
2017-06-06T06:26:41.680Z,9.53
2017-06-06T06:29:10.116Z,8.80
2017-06-06T06:31:38.598Z,7.87
2017-06-06T06:34:07.035Z,8.17
2017-06-06T06:36:36.142Z,7.60
2017-06-06T06:39:03.899Z,6.93
2017-06-06T06:41:33.090Z,7.10
2017-06-06T06:44:02.370Z,6.90
2017-06-06T06:46:30.783Z,7.43
2017-06-06T06:48:59.968Z,7.03
2017-06-06T06:51:28.408Z,7.07
2017-06-06T06:53:57.523Z,6.80
2017-06-06T06:56:25.972Z,6.57
2017-06-06T06:58:54.406Z,6.07
2017-06-06T07:01:23.703Z,5.83
2017-06-06T07:03:52.132Z,6.43
2017-06-06T07:06:20.690Z,5.23
2017-06-06T07:08:49.214Z,5.33
2017-06-06T07:11:17.643Z,5.23
2017-06-06T07:13:46.763Z,5.27
2017-06-06T07:16:15.231Z,4.70
2017-06-06T07:18:44.435Z,4.80
2017-06-06T07:21:13.684Z,4.40
2017-06-06T07:23:42.103Z,4.53
2017-06-06T07:26:11.292Z,4.53
2017-06-06T07:28:39.767Z,4.57
2017-06-06T07:31:08.202Z,6.50
2017-06-06T07:33:36.642Z,4.70
2017-06-06T07:36:05.064Z,4.20
2017-06-06T07:38:33.503Z,4.43
2017-06-06T07:41:02.787Z,3.90
2017-06-06T07:43:31.219Z,4.40
2017-06-06T07:45:59.700Z,4.10
2017-06-06T07:48:28.128Z,3.43
2017-06-06T07:50:56.567Z,3.93
2017-06-06T07:53:24.982Z,4.93
2017-06-06T07:55:53.428Z,4.47
2017-06-06T07:58:21.864Z,4.00
2017-06-06T08:00:50.974Z,3.33
2017-06-06T08:03:20.192Z,3.30
2017-06-06T08:05:49.382Z,3.63
2017-06-06T08:08:18.594Z,3.03
2017-06-06T08:10:47.767Z,3.07
2017-06-06T08:13:16.207Z,3.00
2017-06-06T08:15:44.681Z,3.67
2017-06-06T08:18:14.551Z,4.80
2017-06-06T08:20:43.755Z,4.10
2017-06-06T08:23:12.950Z,3.80
2017-06-06T08:25:42.141Z,3.73
2017-06-06T08:28:10.578Z,4.23
2017-06-06T08:30:39.151Z,3.33
2017-06-06T08:33:07.592Z,3.80
2017-06-06T08:35:35.655Z,4.10
2017-06-06T08:38:04.097Z,3.37
2017-06-06T08:40:32.535Z,4.10
2017-06-06T08:43:01.756Z,4.00
2017-06-06T08:45:31.583Z,4.10
2017-06-06T08:48:00.005Z,4.27
2017-06-06T08:50:28.435Z,3.73
2017-06-06T08:52:57.115Z,3.80
2017-06-06T08:55:25.555Z,2.37
2017-06-06T08:57:54.074Z,2.93
2017-06-06T09:00:23.275Z,4.60
2017-06-06T09:02:52.506Z,2.33
2017-06-06T09:05:20.754Z,4.00
2017-06-06T09:07:49.175Z,4.73
2017-06-06T09:10:17.718Z,2.77
2017-06-06T09:12:46.947Z,2.20
2017-06-06T09:15:15.411Z,1.93
2017-06-06T09:17:43.875Z,2.20
2017-06-06T09:20:13.351Z,4.80
2017-06-06T09:22:41.871Z,4.43
2017-06-06T09:25:11.078Z,4.13
2017-06-06T09:27:39.651Z,5.47
2017-06-06T09:30:08.986Z,2.50
2017-06-06T09:32:37.422Z,5.80
2017-06-06T09:35:06.711Z,2.20
2017-06-06T09:37:35.227Z,2.33
2017-06-06T09:40:03.662Z,3.20
2017-06-06T09:42:32.094Z,3.10
2017-06-06T09:45:00.527Z,1.93
2017-06-06T09:47:29.632Z,2.00
2017-06-06T09:49:58.083Z,2.80
2017-06-06T09:52:26.511Z,1.90
2017-06-06T09:54:54.927Z,3.00
2017-06-06T09:57:23.376Z,2.20
2017-06-06T09:59:51.811Z,3.70
2017-06-06T10:02:20.353Z,4.47
2017-06-06T10:04:49.560Z,2.63
2017-06-06T10:07:18.775Z,2.00
2017-06-06T10:09:47.344Z,3.63
2017-06-06T10:12:15.835Z,2.27
2017-06-06T10:14:44.250Z,3.00
2017-06-06T10:17:12.675Z,2.33
2017-06-06T10:19:41.883Z,1.90
2017-06-06T10:22:11.070Z,1.80
2017-06-06T10:24:40.082Z,8.77
2017-06-06T10:27:08.499Z,2.33
2017-06-06T10:29:36.932Z,3.37
2017-06-06T10:32:06.143Z,1.73
2017-06-06T10:34:35.354Z,5.03
2017-06-06T10:37:03.823Z,1.30
2017-06-06T10:39:32.247Z,1.57
2017-06-06T10:42:00.703Z,5.30
2017-06-06T10:44:29.176Z,2.60
2017-06-06T10:46:57.604Z,2.13
2017-06-06T10:49:26.056Z,2.30
2017-06-06T10:51:54.487Z,3.93
2017-06-06T10:54:22.919Z,2.47
2017-06-06T10:56:51.363Z,2.13
2017-06-06T10:59:20.549Z,0.90
2017-06-06T11:01:49.751Z,1.47
2017-06-06T11:04:18.218Z,13.10
2017-06-06T11:06:46.639Z,1.20
2017-06-06T11:09:15.103Z,1.37
2017-06-06T11:11:44.292Z,2.03
2017-06-06T11:14:12.755Z,0.73
2017-06-06T11:16:41.179Z,3.17
2017-06-06T11:19:09.600Z,0.80
2017-06-06T11:21:38.039Z,1.90
2017-06-06T11:24:06.460Z,2.80
2017-06-06T11:26:34.907Z,2.60
2017-06-06T11:29:03.339Z,0.90
2017-06-06T11:31:31.808Z,1.17
2017-06-06T11:34:00.234Z,0.70
2017-06-06T11:36:28.922Z,0.80
2017-06-06T11:38:58.118Z,5.90
2017-06-06T11:41:27.314Z,1.43
2017-06-06T11:43:56.667Z,0.70
2017-06-06T11:46:25.073Z,3.63
2017-06-06T11:48:53.525Z,1.47
2017-06-06T11:51:21.963Z,1.00
2017-06-06T11:53:51.309Z,2.10
2017-06-06T11:56:19.748Z,1.03
2017-06-06T11:58:48.939Z,2.60
2017-06-06T12:01:17.387Z,2.10
2017-06-06T12:03:45.799Z,3.80
2017-06-06T12:06:14.252Z,0.83
2017-06-06T12:08:42.692Z,0.80
2017-06-06T12:11:11.126Z,0.90
2017-06-06T12:13:39.551Z,2.43
2017-06-06T12:16:07.990Z,1.27
2017-06-06T12:18:36.419Z,0.77
2017-06-06T12:21:04.667Z,0.93
2017-06-06T12:23:33.867Z,0.60
2017-06-06T12:26:03.078Z,2.00
2017-06-06T12:28:32.271Z,0.80
2017-06-06T12:31:01.475Z,0.80
2017-06-06T12:33:30.671Z,0.70
2017-06-06T12:35:59.887Z,1.90
2017-06-06T12:38:29.071Z,0.70
2017-06-06T12:40:58.271Z,0.77
2017-06-06T12:43:27.483Z,0.70
2017-06-06T12:45:55.985Z,1.53
2017-06-06T12:48:24.446Z,0.57
2017-06-06T12:50:52.869Z,2.63
2017-06-06T12:53:21.309Z,0.70
2017-06-06T12:55:50.501Z,3.17
2017-06-06T12:58:18.918Z,1.27
2017-06-06T13:00:47.351Z,0.70
2017-06-06T13:03:16.534Z,0.97
2017-06-06T13:05:44.991Z,1.50
2017-06-06T13:08:13.419Z,1.23
2017-06-06T13:10:41.842Z,0.87
2017-06-06T13:13:10.092Z,1.00
2017-06-06T13:15:38.514Z,1.53
2017-06-06T13:18:06.966Z,0.70
2017-06-06T13:20:35.423Z,2.63
2017-06-06T13:23:04.626Z,2.77
2017-06-06T13:25:33.895Z,1.07
2017-06-06T13:28:02.319Z,1.20
2017-06-06T13:30:30.842Z,2.47
2017-06-06T13:32:59.346Z,1.00
2017-06-06T13:35:28.467Z,1.87
2017-06-06T13:37:57.683Z,1.57
2017-06-06T13:40:26.879Z,3.20
2017-06-06T13:42:56.060Z,0.90
2017-06-06T13:45:25.270Z,1.73
2017-06-06T13:47:54.463Z,2.97
2017-06-06T13:50:23.655Z,1.33
2017-06-06T13:52:52.795Z,6.07
2017-06-06T13:55:21.246Z,1.73
2017-06-06T13:57:50.451Z,1.50
2017-06-06T14:00:19.639Z,3.23
2017-06-06T14:02:48.849Z,1.23
2017-06-06T14:05:18.031Z,1.87
2017-06-06T14:07:47.439Z,4.40
2017-06-06T14:10:16.639Z,2.10
2017-06-06T14:12:45.831Z,1.30
2017-06-06T14:15:14.266Z,1.50
2017-06-06T14:17:42.695Z,1.70
2017-06-06T14:20:11.127Z,2.23
2017-06-06T14:22:39.571Z,5.10
2017-06-06T14:25:08.772Z,3.17
2017-06-06T14:27:37.996Z,2.33
2017-06-06T14:30:06.428Z,5.93
2017-06-06T14:32:34.868Z,2.03
2017-06-06T14:35:03.291Z,1.77
2017-06-06T14:37:31.878Z,3.50
2017-06-06T14:40:00.298Z,2.77
2017-06-06T14:42:28.732Z,3.37
2017-06-06T14:44:57.160Z,1.10
2017-06-06T14:47:25.615Z,1.93
2017-06-06T14:49:54.052Z,1.30
2017-06-06T14:52:22.486Z,2.00
2017-06-06T14:54:50.935Z,2.20
2017-06-06T14:57:19.498Z,2.23
2017-06-06T14:59:47.974Z,4.47
2017-06-06T15:02:16.387Z,3.50
2017-06-06T15:04:44.833Z,2.20
2017-06-06T15:07:13.260Z,2.60
2017-06-06T15:09:42.386Z,2.90
2017-06-06T15:12:10.819Z,4.33
2017-06-06T15:14:39.255Z,2.80
2017-06-06T15:17:07.702Z,4.00
2017-06-06T15:19:36.119Z,3.03
2017-06-06T15:22:04.583Z,3.80
2017-06-06T15:24:33.014Z,1.00
2017-06-06T15:27:01.451Z,1.30
2017-06-06T15:29:29.899Z,1.60
2017-06-06T15:31:58.335Z,2.17
2017-06-06T15:34:26.790Z,1.57
2017-06-06T15:36:55.232Z,2.40
2017-06-06T15:39:23.656Z,3.33
2017-06-06T15:41:52.179Z,1.53
2017-06-06T15:44:21.299Z,2.53
2017-06-06T15:46:49.767Z,1.70
2017-06-06T15:49:18.185Z,3.13
2017-06-06T15:51:46.620Z,1.33
2017-06-06T15:54:15.064Z,4.00
2017-06-06T15:56:43.499Z,1.10
2017-06-06T15:59:11.953Z,2.80
2017-06-06T16:01:40.399Z,1.37
2017-06-06T16:04:08.850Z,2.93
2017-06-06T16:06:37.271Z,2.63
2017-06-06T16:09:05.763Z,6.37
2017-06-06T16:11:34.223Z,3.57
2017-06-06T16:14:02.650Z,1.93
2017-06-06T16:16:31.088Z,2.80
2017-06-06T16:18:59.511Z,0.70
2017-06-06T16:21:27.992Z,1.10
2017-06-06T16:23:56.411Z,2.03
2017-06-06T16:26:24.842Z,1.20
2017-06-06T16:28:53.292Z,2.77
2017-06-06T16:31:21.735Z,2.30
2017-06-06T16:33:50.163Z,1.07
2017-06-06T16:36:18.640Z,1.23
2017-06-06T16:38:47.076Z,1.17
2017-06-06T16:41:15.575Z,2.80
2017-06-06T16:43:44.031Z,1.33
2017-06-06T16:46:12.463Z,3.13
2017-06-06T16:48:41.608Z,1.90
2017-06-06T16:51:10.044Z,1.67
2017-06-06T16:53:39.322Z,2.63
2017-06-06T16:56:07.768Z,2.63
2017-06-06T16:58:36.336Z,3.93
2017-06-06T17:01:04.810Z,1.27
2017-06-06T17:03:33.259Z,1.50
2017-06-06T17:06:01.688Z,4.97
2017-06-06T17:08:30.260Z,2.00
2017-06-06T17:10:59.438Z,2.93
2017-06-06T17:13:28.635Z,2.73
2017-06-06T17:15:57.764Z,3.77
2017-06-06T17:18:26.199Z,1.10
2017-06-06T17:20:54.755Z,0.80
2017-06-06T17:23:23.165Z,2.37
2017-06-06T17:25:51.620Z,2.30
2017-06-06T17:28:20.171Z,2.73
2017-06-06T17:30:48.610Z,2.03
2017-06-06T17:33:17.076Z,1.90
2017-06-06T17:35:45.511Z,1.10
2017-06-06T17:38:14.009Z,6.67
2017-06-06T17:40:42.487Z,5.30
2017-06-06T17:43:10.933Z,2.17
2017-06-06T17:45:40.164Z,1.27
2017-06-06T17:48:08.599Z,1.70
2017-06-06T17:50:37.391Z,5.10
2017-06-06T17:53:05.852Z,1.60
2017-06-06T17:55:34.291Z,8.23
2017-06-06T17:58:03.492Z,2.23
2017-06-06T18:00:31.957Z,2.60
2017-06-06T18:03:01.153Z,1.83
2017-06-06T18:05:29.715Z,10.20
2017-06-06T18:07:58.169Z,7.17
2017-06-06T18:10:27.337Z,4.67
2017-06-06T18:12:55.857Z,5.03
2017-06-06T18:15:24.305Z,5.77
2017-06-06T18:17:53.559Z,2.70
2017-06-06T18:20:22.188Z,2.93
2017-06-06T18:22:50.652Z,3.43
2017-06-06T18:25:19.846Z,3.97
2017-06-06T18:27:49.112Z,1.60
2017-06-06T18:30:17.539Z,2.97
2017-06-06T18:32:46.752Z,1.53
2017-06-06T18:35:15.218Z,1.33
2017-06-06T18:37:43.667Z,1.80
2017-06-06T18:40:12.144Z,2.70
2017-06-06T18:42:40.578Z,2.93
2017-06-06T18:45:09.040Z,2.20
2017-06-06T18:47:38.256Z,2.87
2017-06-06T18:50:06.708Z,6.03
2017-06-06T18:52:35.172Z,6.93
2017-06-06T18:55:03.611Z,2.80
2017-06-06T18:57:32.044Z,3.80
2017-06-06T19:00:00.560Z,4.90
2017-06-06T19:02:29.003Z,2.10
2017-06-06T19:04:57.658Z,5.70
2017-06-06T19:07:26.183Z,3.10
2017-06-06T19:09:54.606Z,6.17
2017-06-06T19:12:22.940Z,5.80
2017-06-06T19:14:51.440Z,1.77
2017-06-06T19:17:20.646Z,4.53
2017-06-06T19:19:50.000Z,4.17
2017-06-06T19:22:19.300Z,2.73
2017-06-06T19:24:47.833Z,2.40
2017-06-06T19:27:17.141Z,2.93
2017-06-06T19:29:46.364Z,3.23
2017-06-06T19:32:14.791Z,5.43
2017-06-06T19:34:43.243Z,2.47
2017-06-06T19:37:11.676Z,3.63
2017-06-06T19:39:40.888Z,3.50
2017-06-06T19:42:09.350Z,4.73
2017-06-06T19:44:37.808Z,2.93
2017-06-06T19:47:06.407Z,4.37
2017-06-06T19:49:34.848Z,2.93
2017-06-06T19:52:03.317Z,4.73
2017-06-06T19:54:31.754Z,4.53
2017-06-06T19:57:00.230Z,5.10
2017-06-06T19:59:28.851Z,7.83
2017-06-06T20:01:58.062Z,8.60
2017-06-06T20:04:26.542Z,7.47
2017-06-06T20:06:55.012Z,7.73
2017-06-06T20:09:24.229Z,7.33
2017-06-06T20:11:52.810Z,8.87
2017-06-06T20:14:21.239Z,5.03
2017-06-06T20:16:49.767Z,6.80
2017-06-06T20:19:18.230Z,3.50
2017-06-06T20:21:46.757Z,4.83
2017-06-06T20:24:16.655Z,4.53
2017-06-06T20:26:45.093Z,5.70
2017-06-06T20:29:13.586Z,4.00
2017-06-06T20:31:42.089Z,6.10
2017-06-06T20:34:11.291Z,2.53
2017-06-06T20:36:40.503Z,2.53
2017-06-06T20:39:09.046Z,4.40
2017-06-06T20:41:37.500Z,3.03
2017-06-06T20:44:05.956Z,3.80
2017-06-06T20:46:34.439Z,4.13
2017-06-06T20:49:02.868Z,1.90
2017-06-06T20:51:31.334Z,2.40
2017-06-06T20:53:59.784Z,3.07
2017-06-06T20:56:29.224Z,3.17
2017-06-06T20:58:57.657Z,5.90
2017-06-06T21:01:26.179Z,2.93
2017-06-06T21:03:54.712Z,2.37
2017-06-06T21:06:23.175Z,2.17
2017-06-06T21:08:51.628Z,1.40
2017-06-06T21:11:20.054Z,2.10
2017-06-06T21:13:49.272Z,3.50
2017-06-06T21:16:17.722Z,1.80
2017-06-06T21:18:46.931Z,2.27
2017-06-06T21:21:16.313Z,2.33
2017-06-06T21:23:44.871Z,1.40
2017-06-06T21:26:13.327Z,2.00
2017-06-06T21:28:41.775Z,1.50
2017-06-06T21:31:10.983Z,1.40
2017-06-06T21:33:40.191Z,2.90
2017-06-06T21:36:09.475Z,2.70
2017-06-06T21:38:38.675Z,2.40
2017-06-06T21:41:07.887Z,2.43
2017-06-06T21:43:36.378Z,2.70
2017-06-06T21:46:04.889Z,1.57
2017-06-06T21:48:33.350Z,1.07
2017-06-06T21:51:01.837Z,1.80
2017-06-06T21:53:30.319Z,2.03
2017-06-06T21:55:58.747Z,1.23
2017-06-06T21:58:27.192Z,1.73
2017-06-06T22:00:55.635Z,2.10
2017-06-06T22:03:24.847Z,3.73
2017-06-06T22:05:53.303Z,3.80
2017-06-06T22:08:21.730Z,1.87
2017-06-06T22:10:50.172Z,2.03
2017-06-06T22:13:19.366Z,1.10
2017-06-06T22:15:48.599Z,6.93
2017-06-06T22:18:17.051Z,1.40
2017-06-06T22:20:45.467Z,3.40
2017-06-06T22:23:13.944Z,1.17
2017-06-06T22:25:42.535Z,1.67
2017-06-06T22:28:10.982Z,1.10
2017-06-06T22:30:39.405Z,7.87
2017-06-06T22:33:07.851Z,1.50
2017-06-06T22:35:37.074Z,1.00
2017-06-06T22:38:05.522Z,1.60
2017-06-06T22:40:33.940Z,1.83
2017-06-06T22:43:02.376Z,1.13
2017-06-06T22:45:30.852Z,1.80
2017-06-06T22:47:59.282Z,1.67
2017-06-06T22:50:27.726Z,3.27
2017-06-06T22:52:56.176Z,2.50
2017-06-06T22:55:24.627Z,1.60
2017-06-06T22:57:53.060Z,3.53
2017-06-06T23:00:21.488Z,0.77
2017-06-06T23:02:49.948Z,3.40
2017-06-06T23:05:19.149Z,0.97
2017-06-06T23:07:48.478Z,1.90
2017-06-06T23:10:16.954Z,1.40
2017-06-06T23:12:45.976Z,1.27
2017-06-06T23:15:14.410Z,1.40
2017-06-06T23:17:43.604Z,2.10
2017-06-06T23:20:12.819Z,1.27
2017-06-06T23:22:41.266Z,0.90
2017-06-06T23:25:09.714Z,4.00
2017-06-06T23:27:38.143Z,4.40
2017-06-06T23:30:07.339Z,1.90
2017-06-06T23:32:36.567Z,1.90
2017-06-06T23:35:05.015Z,2.30
2017-06-06T23:37:33.460Z,1.40
2017-06-06T23:40:01.892Z,0.80
2017-06-06T23:42:31.107Z,3.43
2017-06-06T23:45:00.303Z,1.13
2017-06-06T23:47:29.502Z,4.00
2017-06-06T23:49:58.686Z,0.90
2017-06-06T23:52:27.887Z,2.57
2017-06-06T23:54:57.241Z,5.43
2017-06-06T23:57:25.679Z,0.80
2017-06-06T23:59:54.882Z,1.10
